Time;durP1;ratioP1;P1;durP2;ratioP2;P2;SDS_P1;SDS_P2;PMS_P1;PMS_P2;Temp;Humidity;BMP_temperature;BMP_pressure;BME280_temperature;BME280_humidity;BME280_pressure;Samples;Min_cycle;Max_cycle;Signal;HPM_P1;HPM_P2
2022/11/21 07:14:03;;;;;;;9.10;2.20;;;7.40;99.90;;;;;;5181501;23;20048;-77
2022/11/21 07:16:34;;;;;;;6.28;1.60;;;7.40;99.90;;;;;;4871207;29;20045;-78
2022/11/21 07:19:01;;;;;;;8.70;1.67;;;7.40;99.90;;;;;;4874090;29;20597;-77
2022/11/21 07:21:28;;;;;;;8.30;1.38;;;7.50;99.90;;;;;;4867194;29;20050;-78
2022/11/21 07:23:55;;;;;;;8.45;1.52;;;7.50;99.90;;;;;;4869451;29;20092;-77
2022/11/21 07:26:21;;;;;;;12.23;1.83;;;7.50;99.90;;;;;;4867784;29;20080;-77
2022/11/21 07:28:48;;;;;;;8.52;1.80;;;7.50;99.90;;;;;;4872018;29;20064;-78
2022/11/21 07:31:15;;;;;;;9.73;1.70;;;7.50;99.90;;;;;;4869970;29;20052;-78
2022/11/21 07:33:45;;;;;;;5.15;1.25;;;7.40;99.90;;;;;;4870241;29;20050;-77
2022/11/21 07:36:12;;;;;;;11.77;2.75;;;7.50;99.90;;;;;;4874126;29;20049;-77
2022/11/21 07:38:40;;;;;;;5.95;1.48;;;7.50;99.90;;;;;;4873457;29;20559;-77
2022/11/21 07:41:07;;;;;;;11.05;1.80;;;7.50;99.90;;;;;;4875484;29;20052;-78
2022/11/21 07:43:34;;;;;;;10.23;2.05;;;7.50;99.90;;;;;;4886562;29;20053;-78
2022/11/21 07:46:01;;;;;;;10.43;1.88;;;7.50;99.90;;;;;;4884833;29;20064;-77
2022/11/21 07:48:27;;;;;;;9.63;2.40;;;7.50;99.90;;;;;;4877353;29;20475;-76
2022/11/21 07:50:54;;;;;;;14.77;2.33;;;7.40;99.90;;;;;;4883079;29;20408;-77
2022/11/21 07:53:21;;;;;;;9.98;2.53;;;7.40;99.90;;;;;;4869587;29;20077;-78
2022/11/21 07:55:47;;;;;;;10.00;2.10;;;7.40;99.90;;;;;;4873289;29;20056;-77
2022/11/21 07:58:15;;;;;;;11.95;2.40;;;7.40;99.90;;;;;;4869748;29;20495;-78
2022/11/21 08:00:42;;;;;;;11.85;2.40;;;7.40;99.90;;;;;;4862336;29;20149;-78
2022/11/21 08:03:11;;;;;;;11.52;2.13;;;7.40;99.90;;;;;;4869563;29;20113;-78
2022/11/21 08:05:39;;;;;;;12.93;2.45;;;7.40;99.90;;;;;;4870000;29;20476;-77
2022/11/21 08:08:07;;;;;;;15.30;2.33;;;7.40;99.90;;;;;;4872932;29;20057;-78
2022/11/21 08:10:44;;;;;;;9.55;2.05;;;7.30;99.90;;;;;;4869928;29;20136;-77
2022/11/21 08:13:12;;;;;;;11.68;1.90;;;7.30;99.90;;;;;;4869595;29;20056;-78
2022/11/21 08:15:39;;;;;;;10.73;2.72;;;7.30;99.90;;;;;;4871167;29;20052;-77
2022/11/21 08:18:11;;;;;;;13.38;2.67;;;7.30;99.90;;;;;;4870994;29;20049;-77
2022/11/21 08:20:38;;;;;;;9.98;2.38;;;7.40;99.90;;;;;;4870701;29;20064;-77
2022/11/21 08:23:05;;;;;;;14.93;2.35;;;7.30;99.90;;;;;;4870674;29;20404;-78
2022/11/21 08:25:33;;;;;;;7.57;2.47;;;7.30;99.90;;;;;;4872357;29;20468;-79
2022/11/21 08:28:01;;;;;;;15.93;2.53;;;7.30;99.90;;;;;;4870705;29;20145;-78
2022/11/21 08:30:28;;;;;;;9.27;1.90;;;7.40;99.90;;;;;;4871408;29;20086;-79
2022/11/21 08:32:57;;;;;;;7.28;2.35;;;7.40;99.90;;;;;;4868701;29;20077;-78
2022/11/21 08:35:27;;;;;;;13.55;3.15;;;7.40;99.90;;;;;;4872326;29;20049;-78
2022/11/21 08:37:59;;;;;;;14.80;2.85;;;7.40;99.90;;;;;;4868829;29;20423;-79
2022/11/21 08:40:27;;;;;;;15.40;3.08;;;7.40;99.90;;;;;;4869826;29;20140;-78
2022/11/21 08:43:03;;;;;;;19.15;3.40;;;7.40;99.90;;;;;;4869457;29;20055;-78
2022/11/21 08:45:30;;;;;;;14.45;3.25;;;7.40;99.90;;;;;;4875610;29;20442;-78
2022/11/21 08:47:57;;;;;;;9.80;2.10;;;7.50;99.90;;;;;;4870758;29;20071;-78
2022/11/21 08:50:25;;;;;;;12.38;2.25;;;7.50;99.90;;;;;;4870434;29;20052;-78
2022/11/21 08:52:51;;;;;;;15.18;2.50;;;7.50;99.90;;;;;;4870170;29;20068;-78
2022/11/21 08:55:18;;;;;;;12.80;2.35;;;7.50;99.90;;;;;;4871073;29;20482;-80
2022/11/21 08:57:45;;;;;;;15.80;1.83;;;7.60;99.90;;;;;;4871832;29;20488;-78
2022/11/21 09:00:13;;;;;;;9.00;2.00;;;7.70;99.90;;;;;;4876919;29;20052;-76
2022/11/21 09:02:40;;;;;;;15.45;3.03;;;7.80;99.90;;;;;;4870133;29;20117;-76
2022/11/21 09:05:07;;;;;;;13.13;2.00;;;7.90;99.90;;;;;;4867022;29;20136;-77
2022/11/21 09:07:34;;;;;;;17.48;2.30;;;7.90;99.90;;;;;;4867955;29;20128;-78
2022/11/21 09:10:01;;;;;;;10.50;1.92;;;8.00;99.90;;;;;;4872189;29;20055;-78
2022/11/21 09:12:28;;;;;;;8.38;1.85;;;8.00;99.90;;;;;;4869432;29;20128;-78
2022/11/21 09:20:25;;;;;;;13.43;3.35;;;8.10;99.90;;;;;;4876056;29;20048;-78
2022/11/21 09:22:52;;;;;;;15.63;3.22;;;8.10;99.90;;;;;;4874930;29;20109;-77
2022/11/21 09:25:18;;;;;;;13.50;3.03;;;8.20;99.90;;;;;;4873622;29;20758;-77
2022/11/21 09:27:45;;;;;;;16.98;4.18;;;8.30;99.90;;;;;;4871269;29;20041;-78
2022/11/21 09:30:13;;;;;;;5.65;1.80;;;8.40;99.90;;;;;;4872776;29;20045;-77
2022/11/21 09:32:40;;;;;;;12.95;2.72;;;8.50;99.90;;;;;;4865398;29;20093;-78
2022/11/21 09:35:07;;;;;;;9.77;2.95;;;8.50;99.90;;;;;;4872199;29;20045;-78
2022/11/21 09:37:37;;;;;;;13.57;3.08;;;8.60;99.90;;;;;;4861493;29;20546;-77
2022/11/21 09:40:05;;;;;;;16.23;3.35;;;8.60;99.90;;;;;;4871501;29;20144;-77
2022/11/21 09:42:38;;;;;;;11.75;2.20;;;8.70;99.90;;;;;;4880021;29;20055;-79
2022/11/21 09:45:14;;;;;;;14.98;3.00;;;8.80;99.90;;;;;;4873873;29;20052;-79
2022/11/21 09:47:48;;;;;;;12.02;2.05;;;8.90;99.90;;;;;;4871106;29;20060;-76
2022/11/21 09:50:14;;;;;;;11.82;2.33;;;9.00;99.90;;;;;;4869712;29;20063;-78
2022/11/21 09:52:56;;;;;;;9.90;2.30;;;9.10;99.90;;;;;;4872494;29;20046;-77
2022/11/21 09:55:28;;;;;;;11.55;2.47;;;9.10;99.90;;;;;;4870203;29;20041;-77
2022/11/21 09:57:56;;;;;;;16.83;3.53;;;9.20;99.90;;;;;;4869055;29;20084;-78
2022/11/21 10:00:24;;;;;;;13.57;2.95;;;9.30;99.90;;;;;;4885180;29;20041;-77
2022/11/21 10:02:51;;;;;;;11.43;2.22;;;9.40;99.90;;;;;;4876045;29;20533;-77
2022/11/21 10:05:46;;;;;;;10.10;2.08;;;9.40;99.90;;;;;;4869071;29;20475;-77
2022/11/21 10:08:40;;;;;;;16.38;2.40;;;9.50;99.90;;;;;;4874040;29;20549;-77
2022/11/21 10:15:02;;;;;;;13.57;3.75;;;9.70;99.90;;;;;;4870944;29;20582;-77
2022/11/21 10:17:31;;;;;;;8.18;1.98;;;9.70;99.90;;;;;;4871547;29;20056;-77
2022/11/21 10:20:19;;;;;;;8.05;2.03;;;9.80;99.90;;;;;;4873302;29;20045;-76
2022/11/21 10:23:18;;;;;;;13.90;2.33;;;9.80;99.90;;;;;;4867812;29;20443;-77
2022/11/21 10:25:55;;;;;;;13.20;2.13;;;9.80;99.90;;;;;;4873070;29;20479;-77
2022/11/21 10:28:40;;;;;;;14.23;1.98;;;9.90;99.90;;;;;;4869855;29;20067;-76
2022/11/21 10:31:10;;;;;;;12.88;1.83;;;9.90;99.90;;;;;;4872209;29;20049;-78
2022/11/21 10:33:39;;;;;;;14.55;1.95;;;9.90;99.90;;;;;;4869489;29;20053;-77
2022/11/21 10:36:27;;;;;;;7.28;1.80;;;10.00;99.90;;;;;;4870802;29;20056;-77
2022/11/21 10:39:21;;;;;;;6.97;1.83;;;9.90;99.90;;;;;;4871987;29;20065;-77
2022/11/21 10:42:28;;;;;;;12.32;2.00;;;9.90;99.90;;;;;;4927664;23;20068;-85
2022/11/21 10:45:17;;;;;;;10.88;1.90;;;9.90;99.90;;;;;;4909118;29;20055;-84
2022/11/21 10:47:49;;;;;;;9.38;1.73;;;10.00;99.90;;;;;;4916273;29;20095;-84
2022/11/21 10:50:45;;;;;;;9.55;2.33;;;9.90;99.90;;;;;;4916706;29;20127;-84
2022/11/21 10:56:07;;;;;;;9.82;1.77;;;10.00;99.90;;;;;;4916358;29;20054;-84
2022/11/21 10:58:36;;;;;;;9.82;2.03;;;10.00;99.90;;;;;;4915779;29;20044;-85
2022/11/21 11:01:02;;;;;;;12.52;1.77;;;10.00;99.90;;;;;;4921181;29;20055;-85
2022/11/21 11:03:30;;;;;;;10.93;1.70;;;10.00;99.90;;;;;;4917964;29;20127;-84
2022/11/21 11:05:57;;;;;;;9.75;2.38;;;10.00;99.90;;;;;;4921448;29;20083;-84
2022/11/21 11:08:26;;;;;;;9.43;1.70;;;10.00;99.90;;;;;;4917255;29;20527;-84
2022/11/21 11:11:07;;;;;;;6.43;1.63;;;10.00;99.90;;;;;;4916958;29;20052;-84
2022/11/21 11:14:00;;;;;;;10.77;1.60;;;9.90;99.90;;;;;;4916687;29;20052;-84
2022/11/21 11:16:28;;;;;;;9.40;1.75;;;9.90;99.90;;;;;;4922378;29;20044;-84
2022/11/21 11:18:59;;;;;;;11.73;1.60;;;9.90;99.90;;;;;;4914902;29;20049;-84
2022/11/21 11:21:43;;;;;;;13.27;1.70;;;9.90;99.90;;;;;;4917322;29;20083;-84
2022/11/21 11:24:12;;;;;;;8.57;2.33;;;10.00;99.90;;;;;;4918832;29;20079;-84
2022/11/21 11:26:52;;;;;;;7.93;1.80;;;10.00;99.90;;;;;;4916245;29;20513;-84
2022/11/21 11:29:21;;;;;;;9.43;1.63;;;10.00;99.90;;;;;;4931791;29;20051;-84
2022/11/21 11:31:55;;;;;;;7.90;1.67;;;10.00;99.90;;;;;;4933747;29;20489;-84
2022/11/21 11:34:27;;;;;;;9.15;1.60;;;10.00;99.90;;;;;;4922127;29;20111;-84
2022/11/21 11:37:18;;;;;;;5.78;1.50;;;10.00;99.90;;;;;;4924713;29;20072;-84
2022/11/21 11:39:53;;;;;;;4.53;1.20;;;10.00;99.90;;;;;;4922239;29;20051;-84
2022/11/21 11:48:10;;;;;;;8.80;1.70;;;10.00;99.90;;;;;;4930766;29;20056;-84
2022/11/21 11:50:48;;;;;;;8.68;1.30;;;10.00;99.90;;;;;;4920263;29;20060;-83
2022/11/21 11:53:19;;;;;;;6.18;1.40;;;10.00;99.90;;;;;;4915235;29;20071;-84
2022/11/21 11:56:06;;;;;;;5.57;1.33;;;10.00;99.90;;;;;;4918088;29;20059;-84
2022/11/21 11:58:44;;;;;;;5.72;1.27;;;10.00;99.90;;;;;;4920413;29;20641;-84
2022/11/21 12:01:22;;;;;;;4.53;1.45;;;10.00;99.90;;;;;;4918417;29;20055;-84
2022/11/21 12:03:53;;;;;;;5.78;1.63;;;10.00;99.90;;;;;;4919370;29;20044;-84
2022/11/21 12:06:28;;;;;;;2.72;1.10;;;10.00;99.90;;;;;;4919073;29;20514;-84
2022/11/21 12:09:35;;;;;;;6.72;1.20;;;10.00;99.90;;;;;;4916414;29;20044;-84
2022/11/21 12:12:16;;;;;;;5.75;1.25;;;10.10;99.90;;;;;;4919527;29;20115;-84
2022/11/21 12:18:11;;;;;;;5.65;1.23;;;10.20;99.90;;;;;;4927311;29;20067;-85
2022/11/21 12:21:02;;;;;;;8.02;1.85;;;10.30;99.90;;;;;;4926556;29;20064;-85
2022/11/21 12:23:33;;;;;;;6.93;0.95;;;10.30;99.90;;;;;;4928506;29;20419;-84
2022/11/21 12:26:21;;;;;;;2.97;1.30;;;10.40;99.90;;;;;;4920323;29;20116;-85
2022/11/21 12:29:26;;;;;;;5.53;1.40;;;10.40;99.90;;;;;;4926326;29;20115;-85
2022/11/21 12:32:03;;;;;;;5.90;1.02;;;10.50;99.90;;;;;;4915717;29;20463;-85
2022/11/21 12:34:51;;;;;;;3.83;0.90;;;10.50;99.90;;;;;;4920789;29;20083;-85
2022/11/21 12:37:26;;;;;;;3.05;1.08;;;10.60;99.90;;;;;;4926051;29;20059;-85
2022/11/21 12:40:07;;;;;;;6.53;1.95;;;10.60;99.90;;;;;;4915461;29;20076;-85
2022/11/21 12:43:11;;;;;;;6.38;1.20;;;10.60;99.90;;;;;;4916468;29;20048;-85
2022/11/21 12:45:49;;;;;;;4.30;1.00;;;10.60;99.90;;;;;;4916939;29;20068;-85
2022/11/21 12:54:57;;;;;;;7.82;1.60;;;10.70;99.90;;;;;;4915920;29;20052;-84
2022/11/21 12:57:48;;;;;;;5.35;1.23;;;10.80;99.90;;;;;;4915138;29;20061;-85
2022/11/21 13:00:29;;;;;;;5.03;1.08;;;10.90;99.90;;;;;;4921508;29;20056;-85
2022/11/21 13:03:17;;;;;;;7.90;1.42;;;10.90;99.90;;;;;;4916763;29;20049;-85
2022/11/21 13:05:47;;;;;;;3.90;1.00;;;10.90;99.90;;;;;;4916232;29;20082;-85
2022/11/21 13:08:25;;;;;;;5.30;1.88;;;11.00;99.90;;;;;;4919942;29;20537;-84
2022/11/21 13:14:42;;;;;;;8.57;1.88;;;11.10;99.90;;;;;;4906451;29;20053;-85
2022/11/21 13:17:27;;;;;;;7.05;2.20;;;11.10;99.90;;;;;;4906348;29;20048;-85
2022/11/21 13:19:54;;;;;;;5.15;1.98;;;11.10;99.90;;;;;;4910246;29;20147;-85
2022/11/21 13:22:36;;;;;;;7.47;1.75;;;11.10;99.90;;;;;;4916003;29;20053;-85
2022/11/21 13:25:13;;;;;;;9.23;1.60;;;11.00;99.90;;;;;;4918862;29;20057;-85
2022/11/21 13:27:41;;;;;;;7.40;1.80;;;11.00;99.90;;;;;;4915623;29;20044;-85
2022/11/21 13:30:09;;;;;;;5.65;1.50;;;11.00;99.90;;;;;;4920150;29;20052;-85
2022/11/21 13:32:37;;;;;;;8.73;1.40;;;10.90;99.90;;;;;;4914828;29;20053;-85
2022/11/21 13:35:19;;;;;;;4.07;1.10;;;10.80;99.90;;;;;;4918595;29;20072;-85
2022/11/21 13:37:48;;;;;;;9.82;1.70;;;10.70;99.90;;;;;;4915319;29;20056;-85
2022/11/21 13:40:28;;;;;;;5.85;1.25;;;10.60;99.90;;;;;;4917508;29;20052;-85
2022/11/21 13:43:08;;;;;;;11.00;1.85;;;10.60;99.90;;;;;;4914115;29;20581;-85
2022/11/21 13:45:57;;;;;;;10.32;1.77;;;10.50;99.90;;;;;;4915944;29;20060;-85
2022/11/21 13:48:27;;;;;;;6.45;1.40;;;10.40;99.90;;;;;;4918106;29;20056;-85
2022/11/21 13:51:12;;;;;;;13.43;3.03;;;10.40;99.90;;;;;;4923605;29;20453;-85
2022/11/21 13:54:01;;;;;;;7.85;1.20;;;10.40;99.90;;;;;;4918379;29;20052;-85
2022/11/21 13:57:09;;;;;;;6.20;1.23;;;10.40;99.90;;;;;;4918909;29;20053;-85
2022/11/21 13:59:54;;;;;;;7.85;1.88;;;10.40;99.90;;;;;;4915055;29;20048;-86
2022/11/21 14:02:36;;;;;;;5.13;1.60;;;10.40;99.90;;;;;;4916114;29;20066;-86
2022/11/21 14:05:14;;;;;;;5.63;1.80;;;10.30;99.90;;;;;;4915273;29;20063;-86
2022/11/21 14:07:42;;;;;;;9.40;2.70;;;10.30;99.90;;;;;;4916246;29;20440;-88
2022/11/21 14:10:24;;;;;;;7.60;1.77;;;10.30;99.90;;;;;;4917312;29;20056;-86
2022/11/21 14:12:53;;;;;;;6.03;1.63;;;10.30;99.90;;;;;;4913828;29;20060;-86
2022/11/21 14:15:38;;;;;;;10.23;1.70;;;10.30;99.90;;;;;;4917794;29;20146;-86
2022/11/21 14:18:12;;;;;;;7.20;1.95;;;10.20;99.90;;;;;;4919922;29;20054;-86
2022/11/21 14:20:45;;;;;;;7.22;1.75;;;10.20;99.90;;;;;;4920232;29;20048;-86
2022/11/21 14:23:17;;;;;;;5.07;1.95;;;10.10;99.90;;;;;;4918906;29;20142;-87
2022/11/21 14:26:00;;;;;;;9.70;2.00;;;10.00;99.90;;;;;;4923870;29;20052;-86
2022/11/21 14:28:30;;;;;;;9.48;1.77;;;10.10;99.90;;;;;;4926369;29;20502;-86
2022/11/21 14:31:08;;;;;;;7.55;1.35;;;10.10;99.90;;;;;;4933420;29;20646;-85
2022/11/21 14:33:36;;;;;;;7.13;1.85;;;10.00;99.90;;;;;;4929091;29;20078;-85
2022/11/21 14:36:23;;;;;;;7.95;1.92;;;10.00;99.90;;;;;;4927369;29;20061;-86
2022/11/21 14:38:58;;;;;;;7.35;2.08;;;10.00;99.90;;;;;;4922172;29;20116;-86
2022/11/21 14:41:50;;;;;;;6.82;2.00;;;9.90;99.90;;;;;;4920500;29;20052;-86
2022/11/21 14:44:20;;;;;;;7.80;1.67;;;9.90;99.90;;;;;;4921219;29;20053;-86
2022/11/21 14:46:47;;;;;;;10.43;2.70;;;9.90;99.90;;;;;;4922266;29;20071;-86
2022/11/21 14:49:17;;;;;;;9.00;2.65;;;9.80;99.90;;;;;;4921238;29;20080;-86
2022/11/21 14:52:07;;;;;;;7.95;2.80;;;9.80;99.90;;;;;;4920504;29;20111;-86
2022/11/21 14:54:47;;;;;;;11.40;3.00;;;9.80;99.90;;;;;;4920474;29;20056;-86
2022/11/21 14:57:42;;;;;;;8.90;2.15;;;9.80;99.90;;;;;;4919751;29;20066;-85
2022/11/21 15:00:17;;;;;;;10.85;2.90;;;9.70;99.90;;;;;;4918637;29;20068;-86
2022/11/21 15:03:15;;;;;;;9.13;3.03;;;9.70;99.90;;;;;;4920993;29;20108;-87
2022/11/21 15:05:42;;;;;;;13.88;3.40;;;9.60;99.90;;;;;;4919069;29;20439;-85
2022/11/21 15:08:29;;;;;;;7.35;3.97;;;9.60;99.90;;;;;;4918221;29;20423;-85
2022/11/21 15:11:16;;;;;;;15.30;5.47;;;9.50;99.90;;;;;;4920962;29;20093;-87
2022/11/21 15:13:47;;;;;;;15.68;6.35;;;9.50;99.90;;;;;;4920797;29;20071;-87
2022/11/21 15:16:34;;;;;;;11.55;6.55;;;9.40;99.90;;;;;;4922357;29;20080;-86
2022/11/21 15:19:08;;;;;;;17.77;9.18;;;9.40;99.90;;;;;;4919120;29;20049;-86
2022/11/21 15:21:35;;;;;;;19.75;7.93;;;9.40;99.90;;;;;;4920150;29;20059;-86
2022/11/21 15:24:36;;;;;;;19.83;6.43;;;9.30;99.90;;;;;;4923163;29;20478;-85
2022/11/21 15:27:24;;;;;;;14.43;5.15;;;9.30;99.90;;;;;;4919447;29;20087;-86
2022/11/21 15:30:09;;;;;;;21.45;6.25;;;9.20;99.90;;;;;;4921157;29;20542;-86
2022/11/21 15:33:14;;;;;;;21.65;7.60;;;9.20;99.90;;;;;;4916217;29;20108;-86
2022/11/21 15:35:54;;;;;;;13.82;5.07;;;9.10;99.90;;;;;;4912735;29;20063;-85
2022/11/21 15:38:25;;;;;;;12.88;3.25;;;9.10;99.90;;;;;;4914157;29;20063;-85
2022/11/21 15:41:09;;;;;;;6.82;2.70;;;9.00;99.90;;;;;;4916635;29;20055;-85
2022/11/21 15:43:44;;;;;;;11.80;3.17;;;9.00;99.90;;;;;;4914671;29;20562;-85
2022/11/21 15:46:23;;;;;;;20.15;9.00;;;8.90;99.90;;;;;;4914262;29;20112;-85
2022/11/21 15:48:51;;;;;;;10.27;3.38;;;8.90;99.90;;;;;;4915599;29;20049;-85
2022/11/21 15:51:26;;;;;;;14.02;4.70;;;8.90;99.90;;;;;;4917628;29;20091;-85
2022/11/21 15:54:16;;;;;;;15.95;5.80;;;8.80;99.90;;;;;;4917986;29;20059;-85
2022/11/21 15:56:45;;;;;;;18.83;6.30;;;8.70;99.90;;;;;;4915883;29;20059;-85
2022/11/21 15:59:14;;;;;;;11.27;5.38;;;8.70;99.90;;;;;;4917966;29;20565;-85
2022/11/21 16:01:41;;;;;;;20.48;6.30;;;8.70;99.90;;;;;;4911107;29;20059;-85
2022/11/21 16:04:10;;;;;;;15.45;6.47;;;8.60;99.90;;;;;;4919996;29;20075;-86
2022/11/21 16:06:37;;;;;;;12.82;7.03;;;8.60;99.90;;;;;;4910505;29;20078;-85
2022/11/21 16:09:04;;;;;;;13.82;7.45;;;8.60;99.90;;;;;;4919796;29;20052;-85
2022/11/21 16:11:35;;;;;;;13.15;5.88;;;8.60;99.90;;;;;;4913756;29;20501;-85
2022/11/21 16:14:04;;;;;;;16.90;5.63;;;8.60;99.90;;;;;;4919705;29;20060;-85
2022/11/21 16:16:33;;;;;;;13.82;4.07;;;8.60;99.90;;;;;;4912144;29;20147;-85
2022/11/21 16:19:05;;;;;;;5.80;2.05;;;8.50;99.90;;;;;;4911761;29;20063;-84
2022/11/21 16:21:32;;;;;;;7.78;1.90;;;8.50;99.90;;;;;;4911185;29;20049;-85
2022/11/21 16:23:59;;;;;;;9.98;2.05;;;8.50;99.90;;;;;;4910942;29;20136;-85
2022/11/21 16:26:29;;;;;;;24.02;7.57;;;8.50;99.90;;;;;;4904494;29;20055;-86
2022/11/21 16:28:57;;;;;;;20.20;6.25;;;8.40;99.90;;;;;;4910020;29;20088;-85
2022/11/21 16:31:26;;;;;;;17.63;6.18;;;8.50;99.90;;;;;;4908915;29;20044;-86
2022/11/21 16:33:54;;;;;;;18.80;6.20;;;8.40;99.90;;;;;;4908712;29;20109;-85
2022/11/21 16:36:26;;;;;;;9.88;3.17;;;8.40;99.90;;;;;;4904904;29;20056;-85
2022/11/21 16:38:53;;;;;;;12.88;5.90;;;8.40;99.90;;;;;;4912624;29;20139;-85
2022/11/21 16:41:22;;;;;;;11.27;5.88;;;8.40;99.90;;;;;;4911137;29;20083;-85
2022/11/21 16:43:51;;;;;;;11.88;5.60;;;8.40;99.90;;;;;;4918611;29;20139;-85
2022/11/21 16:46:19;;;;;;;13.77;4.93;;;8.40;99.90;;;;;;4911774;29;20321;-83
2022/11/21 16:48:46;;;;;;;14.30;3.92;;;8.30;99.90;;;;;;4919167;29;20056;-86
2022/11/21 16:51:19;;;;;;;9.10;3.28;;;8.30;99.90;;;;;;4912983;29;20421;-85
2022/11/21 16:53:48;;;;;;;11.35;4.00;;;8.30;99.90;;;;;;4920533;29;20131;-85
2022/11/21 16:56:15;;;;;;;9.20;2.97;;;8.30;99.90;;;;;;4911879;29;20052;-86
2022/11/21 16:58:42;;;;;;;8.82;2.38;;;8.40;99.90;;;;;;4912629;29;20056;-86
2022/11/21 17:01:11;;;;;;;10.27;3.20;;;8.40;99.90;;;;;;4921148;29;20059;-86
2022/11/21 17:03:43;;;;;;;11.18;2.88;;;8.40;99.90;;;;;;4921153;29;20052;-85
2022/11/21 17:06:11;;;;;;;10.45;3.70;;;8.40;99.90;;;;;;4927276;29;20056;-85
2022/11/21 17:08:38;;;;;;;5.80;2.67;;;8.40;99.90;;;;;;4916298;29;20076;-85
2022/11/21 17:11:22;;;;;;;13.43;5.57;;;8.40;99.90;;;;;;4912669;29;20120;-86
2022/11/21 17:13:50;;;;;;;15.88;5.57;;;8.40;99.90;;;;;;4914757;29;20132;-86
2022/11/21 17:16:21;;;;;;;8.20;3.97;;;8.50;99.90;;;;;;4923735;29;20062;-85
2022/11/21 17:18:52;;;;;;;15.98;7.15;;;8.40;99.90;;;;;;4914292;29;20075;-87
2022/11/21 17:21:19;;;;;;;12.30;6.30;;;8.40;99.90;;;;;;4918247;29;20048;-85
2022/11/21 17:23:46;;;;;;;21.13;7.45;;;8.40;99.90;;;;;;4917951;29;20063;-85
2022/11/21 17:26:16;;;;;;;9.40;4.80;;;8.30;99.90;;;;;;4925957;29;20052;-86
2022/11/21 17:28:43;;;;;;;10.70;4.78;;;8.40;99.90;;;;;;4918259;29;20056;-85
2022/11/21 17:31:14;;;;;;;13.23;4.70;;;8.40;99.90;;;;;;4912939;29;20493;-85
2022/11/21 17:33:42;;;;;;;11.02;5.65;;;8.40;99.90;;;;;;4910035;29;20048;-85
2022/11/21 17:36:13;;;;;;;12.95;5.13;;;8.40;99.90;;;;;;4917389;29;20056;-86
2022/11/21 17:38:41;;;;;;;10.75;5.30;;;8.40;99.90;;;;;;4915197;29;20140;-85
2022/11/21 17:41:10;;;;;;;11.18;4.75;;;8.40;99.90;;;;;;4909254;29;20055;-85
2022/11/21 17:43:37;;;;;;;10.98;6.00;;;8.40;99.90;;;;;;4906434;29;20052;-84
2022/11/21 17:46:08;;;;;;;18.80;5.28;;;8.40;99.90;;;;;;4910076;29;20052;-86
2022/11/21 17:48:36;;;;;;;15.18;7.68;;;8.40;99.90;;;;;;4910973;29;20051;-85
2022/11/21 17:51:06;;;;;;;11.85;5.93;;;8.40;99.90;;;;;;4907425;29;20523;-85
2022/11/21 17:53:36;;;;;;;14.57;7.05;;;8.40;99.90;;;;;;4917300;29;20048;-85
2022/11/21 17:56:05;;;;;;;13.35;6.97;;;8.50;99.90;;;;;;4907800;29;20055;-85
2022/11/21 17:58:33;;;;;;;15.15;8.20;;;8.50;99.90;;;;;;4913995;29;20048;-86
2022/11/21 18:01:01;;;;;;;15.63;7.70;;;8.50;99.90;;;;;;4910670;29;20044;-85
2022/11/21 18:03:29;;;;;;;13.85;7.97;;;8.50;99.90;;;;;;4912255;29;20088;-84
2022/11/21 18:06:10;;;;;;;16.23;8.98;;;8.50;99.90;;;;;;4908587;29;20143;-87
2022/11/21 18:08:39;;;;;;;16.38;8.70;;;8.60;99.90;;;;;;4908301;29;20064;-85
2022/11/21 18:11:08;;;;;;;16.50;7.15;;;8.50;99.90;;;;;;4905924;29;20088;-85
2022/11/21 18:13:35;;;;;;;13.98;7.18;;;8.50;99.90;;;;;;4907453;29;20049;-86
2022/11/21 18:16:04;;;;;;;11.63;6.15;;;8.50;99.90;;;;;;4907414;29;20076;-84
2022/11/21 18:18:32;;;;;;;12.13;7.82;;;8.50;99.90;;;;;;4910134;29;20059;-85
2022/11/21 18:21:10;;;;;;;18.63;8.48;;;8.60;99.90;;;;;;4898839;29;20079;-85
2022/11/21 18:23:38;;;;;;;8.68;5.20;;;8.50;99.90;;;;;;4899744;29;20460;-86
2022/11/21 18:26:08;;;;;;;13.05;4.40;;;8.50;99.90;;;;;;4899623;29;20052;-85
2022/11/21 18:28:34;;;;;;;;;;;8.40;99.90;;;;;;4902907;29;20052;-85
2022/11/21 18:31:07;;;;;;;8.77;1.88;;;8.40;99.90;;;;;;4909651;29;19933;-83
2022/11/21 18:33:35;;;;;;;2.28;1.30;;;8.40;99.90;;;;;;4915729;29;20057;-86
2022/11/21 18:36:04;;;;;;;4.88;1.92;;;8.50;99.90;;;;;;4908268;29;20484;-84
2022/11/21 18:38:33;;;;;;;4.18;1.90;;;8.50;99.90;;;;;;4906505;29;20052;-85
2022/11/21 18:41:20;;;;;;;4.45;1.75;;;8.50;99.90;;;;;;4906454;29;20076;-85
2022/11/21 18:43:57;;;;;;;7.55;1.80;;;8.50;99.90;;;;;;4912457;29;20114;-85
2022/11/21 18:46:26;;;;;;;2.58;1.30;;;8.60;99.90;;;;;;4919632;29;20135;-86
2022/11/21 18:48:53;;;;;;;3.83;1.52;;;8.60;99.90;;;;;;4923502;29;20433;-86
2022/11/21 18:51:31;;;;;;;3.40;1.40;;;8.60;99.90;;;;;;4913851;29;20381;-86
2022/11/21 18:54:02;;;;;;;3.45;1.45;;;8.60;99.90;;;;;;4912912;29;20044;-86
2022/11/21 18:56:29;;;;;;;1.83;1.10;;;8.60;99.90;;;;;;4912654;29;20053;-84
2022/11/21 18:58:55;;;;;;;4.13;1.42;;;8.60;99.90;;;;;;4914845;29;20049;-85
2022/11/21 19:01:28;;;;;;;3.13;0.90;;;8.50;99.90;;;;;;4911256;29;20032;-84
2022/11/21 19:03:55;;;;;;;4.85;1.10;;;8.50;99.90;;;;;;4930433;29;20056;-85
2022/11/21 19:06:24;;;;;;;2.85;1.45;;;8.50;99.90;;;;;;4913106;29;20058;-85
2022/11/21 19:08:52;;;;;;;2.35;0.98;;;8.50;99.90;;;;;;4922914;29;20075;-86
2022/11/21 19:11:20;;;;;;;2.45;0.90;;;8.50;99.90;;;;;;4919604;29;20049;-86
2022/11/21 19:13:47;;;;;;;4.57;1.00;;;8.50;99.90;;;;;;4926762;29;20061;-85
2022/11/21 19:16:17;;;;;;;3.08;1.00;;;8.50;99.90;;;;;;4925815;29;20048;-86
2022/11/21 19:18:44;;;;;;;3.28;1.20;;;8.40;99.90;;;;;;4913858;29;20501;-86
2022/11/21 19:21:34;;;;;;;4.88;1.08;;;8.40;99.90;;;;;;4918661;29;20055;-86
2022/11/21 19:24:01;;;;;;;2.30;1.25;;;8.40;99.90;;;;;;4922200;29;20125;-84
2022/11/21 19:26:30;;;;;;;3.28;1.05;;;8.40;99.90;;;;;;4917943;29;20062;-86
2022/11/21 19:28:57;;;;;;;1.50;1.20;;;8.30;99.90;;;;;;4915183;29;20052;-85
2022/11/21 19:31:24;;;;;;;2.70;1.17;;;8.30;99.90;;;;;;4911427;29;20058;-85
2022/11/21 19:33:51;;;;;;;3.22;1.30;;;8.30;99.90;;;;;;4914367;29;20144;-87
2022/11/21 19:36:20;;;;;;;3.03;1.13;;;8.30;99.90;;;;;;4927519;29;20036;-88
2022/11/21 19:38:48;;;;;;;3.25;1.63;;;8.20;99.90;;;;;;4932509;29;20116;-88
2022/11/21 19:41:18;;;;;;;4.90;1.40;;;8.10;99.90;;;;;;4938386;29;20104;-88
2022/11/21 19:43:53;;;;;;;4.95;2.03;;;8.10;99.90;;;;;;4943844;29;20040;-87
2022/11/21 19:46:31;;;;;;;9.77;4.57;;;8.10;99.90;;;;;;4944105;29;20043;-86
2022/11/21 19:48:59;;;;;;;3.08;1.15;;;8.20;99.90;;;;;;4929591;29;20059;-86
2022/11/21 19:51:32;;;;;;;1.77;1.08;;;8.10;99.90;;;;;;4919722;29;20048;-85
2022/11/21 19:54:02;;;;;;;4.97;1.10;;;8.10;99.90;;;;;;4916174;29;20422;-85
2022/11/21 19:56:28;;;;;;;1.38;0.73;;;8.20;99.90;;;;;;4918522;29;20072;-86
2022/11/21 19:58:56;;;;;;;0.77;0.60;;;8.20;99.90;;;;;;4925052;29;20135;-85
2022/11/21 20:01:24;;;;;;;2.17;1.35;;;8.20;99.90;;;;;;4919082;29;20050;-86
2022/11/21 20:03:55;;;;;;;3.72;0.90;;;8.20;99.90;;;;;;4915421;29;20052;-85
2022/11/21 20:06:23;;;;;;;;;;;8.10;99.90;;;;;;4913989;29;20159;-84
2022/11/21 20:08:52;;;;;;;2.80;0.85;;;8.00;99.90;;;;;;4920515;29;19923;-85
2022/11/21 20:11:20;;;;;;;1.77;1.08;;;8.10;99.90;;;;;;4914548;29;20502;-86
2022/11/21 20:13:48;;;;;;;1.15;0.80;;;8.10;99.90;;;;;;4920897;29;20055;-85
2022/11/21 20:16:24;;;;;;;4.90;1.83;;;8.00;99.90;;;;;;4920454;29;20481;-83
2022/11/21 20:18:54;;;;;;;2.60;0.70;;;8.10;99.90;;;;;;4926233;29;20541;-85
2022/11/21 20:21:21;;;;;;;1.00;0.50;;;8.10;99.90;;;;;;4927809;29;20071;-84
2022/11/21 20:23:48;;;;;;;1.50;0.60;;;8.10;99.90;;;;;;4918155;29;20055;-86
2022/11/21 20:26:16;;;;;;;2.20;0.60;;;8.10;99.90;;;;;;4922539;29;20072;-85
2022/11/21 20:28:43;;;;;;;0.88;0.70;;;8.20;99.90;;;;;;4916524;29;20115;-84
2022/11/21 20:31:25;;;;;;;1.38;0.68;;;8.20;99.90;;;;;;4913224;29;20120;-85
2022/11/21 20:33:56;;;;;;;1.08;0.85;;;8.20;99.90;;;;;;4919504;29;20056;-86
2022/11/21 20:36:24;;;;;;;0.40;0.40;;;8.30;99.90;;;;;;4912163;29;20071;-85
2022/11/21 20:39:02;;;;;;;2.13;1.50;;;8.30;99.90;;;;;;4915144;29;20140;-85
2022/11/21 20:41:31;;;;;;;1.92;1.30;;;8.30;99.90;;;;;;4917990;29;20040;-85
2022/11/21 20:44:00;;;;;;;0.63;0.50;;;8.30;99.90;;;;;;4920658;29;20063;-86
2022/11/21 20:46:47;;;;;;;1.02;0.50;;;8.30;99.90;;;;;;4920901;29;20048;-86
2022/11/21 20:49:14;;;;;;;0.50;0.50;;;8.30;99.90;;;;;;4917182;29;20131;-85
2022/11/21 20:51:42;;;;;;;1.65;1.23;;;8.40;99.90;;;;;;4916191;29;20482;-86
2022/11/21 20:54:29;;;;;;;2.88;1.45;;;8.40;99.90;;;;;;4909879;29;20055;-86
2022/11/21 20:56:56;;;;;;;1.30;0.70;;;8.40;99.90;;;;;;4916668;29;20091;-85
2022/11/21 20:59:24;;;;;;;3.40;1.60;;;8.50;99.90;;;;;;4912957;29;20050;-86
2022/11/21 21:01:51;;;;;;;0.73;0.47;;;8.50;99.90;;;;;;4913667;29;20147;-86
2022/11/21 21:04:18;;;;;;;1.13;0.65;;;8.50;99.90;;;;;;4909434;29;20044;-86
2022/11/21 21:06:44;;;;;;;1.00;0.68;;;8.60;99.90;;;;;;4914197;29;20075;-84